createdAt,value
2019-04-27T00:00:48.314Z,7.50
2019-04-27T00:01:48.469Z,7.40
2019-04-27T00:02:47.291Z,8.00
2019-04-27T00:03:47.282Z,7.80
2019-04-27T00:04:48.715Z,7.50
2019-04-27T00:05:47.261Z,7.70
2019-04-27T00:06:47.258Z,8.10
2019-04-27T00:07:47.239Z,7.80
2019-04-27T00:08:47.229Z,7.30
2019-04-27T00:09:50.251Z,6.60
2019-04-27T00:10:47.209Z,7.20
2019-04-27T00:11:47.195Z,6.90
2019-04-27T00:12:47.186Z,6.90
2019-04-27T00:13:47.174Z,6.80
2019-04-27T00:14:48.308Z,6.80
2019-04-27T00:15:48.163Z,6.60
2019-04-27T00:16:50.703Z,6.30
2019-04-27T00:17:49.442Z,6.40
2019-04-27T00:18:49.702Z,7.30
2019-04-27T00:19:48.111Z,7.50
2019-04-27T00:20:47.361Z,7.30
2019-04-27T00:21:47.091Z,8.40
2019-04-27T00:22:47.084Z,8.40
2019-04-27T00:23:47.081Z,8.70
2019-04-27T00:24:47.059Z,7.50
2019-04-27T00:25:47.836Z,7.90
2019-04-27T00:26:47.035Z,8.40
2019-04-27T00:27:47.056Z,7.90
2019-04-27T00:28:47.025Z,7.80
2019-04-27T00:29:47.019Z,7.50
2019-04-27T00:30:46.993Z,6.60
2019-04-27T00:31:46.982Z,6.90
2019-04-27T00:32:47.092Z,6.70
2019-04-27T00:33:46.976Z,7.40
2019-04-27T00:34:46.952Z,6.20
2019-04-27T00:35:46.941Z,5.90
2019-04-27T00:36:46.929Z,6.00
2019-04-27T00:37:46.920Z,6.10
2019-04-27T00:38:46.912Z,6.30
2019-04-27T00:39:46.906Z,5.70
2019-04-27T00:40:46.893Z,6.40
2019-04-27T00:41:46.877Z,5.70
2019-04-27T00:42:46.866Z,5.50
2019-04-27T00:43:46.865Z,6.10
2019-04-27T00:44:46.848Z,6.40
2019-04-27T00:45:46.834Z,5.40
2019-04-27T00:46:46.826Z,5.60
2019-04-27T00:47:56.488Z,5.20
2019-04-27T00:48:47.799Z,5.50
2019-04-27T00:49:46.791Z,5.80
2019-04-27T00:50:46.783Z,5.20
2019-04-27T00:51:46.769Z,5.00
2019-04-27T00:52:46.770Z,5.30
2019-04-27T00:53:46.748Z,5.20
2019-04-27T00:54:46.739Z,5.20
2019-04-27T00:55:46.724Z,4.90
2019-04-27T00:56:46.723Z,5.10
2019-04-27T00:57:46.713Z,4.90
2019-04-27T00:58:46.703Z,4.90
2019-04-27T00:59:46.687Z,5.10
2019-04-27T01:00:46.678Z,5.00
2019-04-27T01:01:46.662Z,5.50
2019-04-27T01:02:46.652Z,4.70
2019-04-27T01:03:46.643Z,4.90
2019-04-27T01:04:46.648Z,4.90
2019-04-27T01:05:46.620Z,5.10
2019-04-27T01:06:46.609Z,5.50
2019-04-27T01:07:46.599Z,5.20
2019-04-27T01:08:46.595Z,5.10
2019-04-27T01:09:46.576Z,5.00
2019-04-27T01:10:46.570Z,5.20
2019-04-27T01:11:46.553Z,4.60
2019-04-27T01:12:46.541Z,5.20
2019-04-27T01:13:46.534Z,4.60
2019-04-27T01:14:46.523Z,5.30
2019-04-27T01:15:46.519Z,5.40
2019-04-27T01:16:46.502Z,4.30
2019-04-27T01:17:46.488Z,5.10
2019-04-27T01:18:46.480Z,5.10
2019-04-27T01:19:46.473Z,5.30
2019-04-27T01:20:46.456Z,4.90
2019-04-27T01:21:46.448Z,4.90
2019-04-27T01:22:46.436Z,4.90
2019-04-27T01:23:46.428Z,5.00
2019-04-27T01:24:46.415Z,5.40
2019-04-27T01:25:46.410Z,5.10
2019-04-27T01:26:46.395Z,5.40
2019-04-27T01:27:46.386Z,5.50
2019-04-27T01:28:46.370Z,4.90
2019-04-27T01:29:46.360Z,5.40
2019-04-27T01:30:46.351Z,5.00
2019-04-27T01:31:46.348Z,5.10
2019-04-27T01:32:46.330Z,4.70
2019-04-27T01:33:46.332Z,5.30
2019-04-27T01:34:46.304Z,4.90
2019-04-27T01:35:46.298Z,4.80
2019-04-27T01:36:46.283Z,5.40
2019-04-27T01:37:46.282Z,5.60
2019-04-27T01:38:46.268Z,5.20
2019-04-27T01:39:46.252Z,5.10
2019-04-27T01:40:46.242Z,4.90
2019-04-27T01:41:46.227Z,5.40
2019-04-27T01:42:46.223Z,4.90
2019-04-27T01:43:46.209Z,5.40
2019-04-27T01:44:46.198Z,5.00
2019-04-27T01:45:46.185Z,5.30
2019-04-27T01:46:46.174Z,5.90
2019-04-27T01:47:46.163Z,5.90
2019-04-27T01:48:46.154Z,5.10
2019-04-27T01:49:46.140Z,5.40
2019-04-27T01:50:46.133Z,5.40
2019-04-27T01:51:46.120Z,5.40
2019-04-27T01:52:46.107Z,5.90
2019-04-27T01:53:46.098Z,5.80
2019-04-27T01:54:46.091Z,5.90
2019-04-27T01:55:46.072Z,5.80
2019-04-27T01:56:46.076Z,6.00
2019-04-27T01:57:46.052Z,5.90
2019-04-27T01:58:46.041Z,5.70
2019-04-27T01:59:46.031Z,6.00
2019-04-27T02:00:46.021Z,6.10
2019-04-27T02:01:46.013Z,6.20
2019-04-27T02:02:46.016Z,5.70
2019-04-27T02:03:45.991Z,6.00
2019-04-27T02:04:45.975Z,6.20
2019-04-27T02:05:45.966Z,6.20
2019-04-27T02:06:45.954Z,6.30
2019-04-27T02:07:45.944Z,6.00
2019-04-27T02:08:45.931Z,6.10
2019-04-27T02:09:45.919Z,6.40
2019-04-27T02:10:45.909Z,6.60
2019-04-27T02:11:45.904Z,6.80
2019-04-27T02:12:45.888Z,6.10
2019-04-27T02:13:45.882Z,6.60
2019-04-27T02:14:45.865Z,6.60
2019-04-27T02:15:45.855Z,6.90
2019-04-27T02:16:45.849Z,6.70
2019-04-27T02:17:45.840Z,7.20
2019-04-27T02:18:45.823Z,6.90
2019-04-27T02:19:45.819Z,6.80
2019-04-27T02:20:45.802Z,6.70
2019-04-27T02:21:45.788Z,7.60
2019-04-27T02:22:45.777Z,6.70
2019-04-27T02:23:45.776Z,7.20
2019-04-27T02:24:45.755Z,6.90
2019-04-27T02:25:45.754Z,6.70
2019-04-27T02:26:45.734Z,7.20
2019-04-27T02:27:45.723Z,7.00
2019-04-27T02:28:45.711Z,7.10
2019-04-27T02:29:45.704Z,7.00
2019-04-27T02:30:45.700Z,7.10
2019-04-27T02:31:45.694Z,7.00
2019-04-27T02:32:45.669Z,7.50
2019-04-27T02:33:45.667Z,7.20
2019-04-27T02:34:45.647Z,7.10
2019-04-27T02:35:45.637Z,7.20
2019-04-27T02:36:45.636Z,7.70
2019-04-27T02:37:45.615Z,7.40
2019-04-27T02:38:45.606Z,6.70
2019-04-27T02:39:45.593Z,7.10
2019-04-27T02:40:45.584Z,6.80
2019-04-27T02:41:45.571Z,6.80
2019-04-27T02:42:45.563Z,7.30
2019-04-27T02:43:45.554Z,7.20
2019-04-27T02:44:45.543Z,7.80
2019-04-27T02:45:45.526Z,7.10
2019-04-27T02:46:45.526Z,7.90
2019-04-27T02:47:45.520Z,7.20
2019-04-27T02:48:58.686Z,7.30
2019-04-27T02:49:46.481Z,7.40
2019-04-27T02:50:45.474Z,7.60
2019-04-27T02:51:45.460Z,7.70
2019-04-27T02:52:45.459Z,7.90
2019-04-27T02:53:45.441Z,7.00
2019-04-27T02:54:45.437Z,7.60
2019-04-27T02:55:45.415Z,7.30
2019-04-27T02:56:45.414Z,7.00
2019-04-27T02:57:45.406Z,7.10
2019-04-27T02:58:45.383Z,6.90
2019-04-27T02:59:45.382Z,7.10
2019-04-27T03:00:45.361Z,7.30
2019-04-27T03:01:46.809Z,7.50
2019-04-27T03:02:45.342Z,7.00
2019-04-27T03:03:45.333Z,6.70
2019-04-27T03:04:45.355Z,7.00
2019-04-27T03:05:45.309Z,6.50
2019-04-27T03:06:45.296Z,6.70
2019-04-27T03:07:45.284Z,7.00
2019-04-27T03:08:49.323Z,6.80
2019-04-27T03:09:46.264Z,6.80
2019-04-27T03:10:45.255Z,6.30
2019-04-27T03:11:45.253Z,6.40
2019-04-27T03:12:45.230Z,6.30
2019-04-27T03:13:45.217Z,6.70
2019-04-27T03:14:45.209Z,6.20
2019-04-27T03:15:45.205Z,6.50
2019-04-27T03:16:45.191Z,6.10
2019-04-27T03:17:45.200Z,6.20
2019-04-27T03:18:45.164Z,6.40
2019-04-27T03:19:45.153Z,5.90
2019-04-27T03:20:45.141Z,6.10
2019-04-27T03:21:45.153Z,5.70
2019-04-27T03:22:45.126Z,6.00
2019-04-27T03:23:45.106Z,6.00
2019-04-27T03:24:45.099Z,5.80
2019-04-27T03:25:45.086Z,5.70
2019-04-27T03:26:45.075Z,5.70
2019-04-27T03:27:45.064Z,5.50
2019-04-27T03:28:45.065Z,5.60
2019-04-27T03:29:45.062Z,6.10
2019-04-27T03:30:45.032Z,5.70
2019-04-27T03:31:47.655Z,5.60
2019-04-27T03:32:46.018Z,5.50
2019-04-27T03:33:45.005Z,5.70
2019-04-27T03:34:44.991Z,5.30
2019-04-27T03:35:44.976Z,4.90
2019-04-27T03:36:44.968Z,5.20
2019-04-27T03:37:44.962Z,5.20
2019-04-27T03:38:44.948Z,5.00
2019-04-27T03:39:44.939Z,5.00
2019-04-27T03:40:44.931Z,5.10
2019-04-27T03:41:44.910Z,4.30
2019-04-27T03:42:44.901Z,4.80
2019-04-27T03:43:44.891Z,4.40
2019-04-27T03:44:44.885Z,4.30
2019-04-27T03:45:44.869Z,4.60
2019-04-27T03:46:44.878Z,4.40
2019-04-27T03:47:44.846Z,4.60
2019-04-27T03:48:44.838Z,4.50
2019-04-27T03:49:44.824Z,4.30
2019-04-27T03:50:44.815Z,4.10
2019-04-27T03:51:44.803Z,4.30
2019-04-27T03:52:44.796Z,4.20
2019-04-27T03:53:44.779Z,3.90
2019-04-27T03:54:44.765Z,3.70
2019-04-27T03:55:44.757Z,4.10
2019-04-27T03:56:44.761Z,3.60
2019-04-27T03:57:44.738Z,3.60
2019-04-27T03:58:44.725Z,3.60
2019-04-27T03:59:44.718Z,3.80
2019-04-27T04:00:44.704Z,4.60
2019-04-27T04:01:44.693Z,3.60
2019-04-27T04:02:44.685Z,3.30
2019-04-27T04:03:44.671Z,3.30
2019-04-27T04:04:44.659Z,3.60
2019-04-27T04:05:44.652Z,3.40
2019-04-27T04:06:44.662Z,3.10
2019-04-27T04:07:44.633Z,3.40
2019-04-27T04:08:44.615Z,2.80
2019-04-27T04:09:44.614Z,3.10
2019-04-27T04:10:44.598Z,2.70
2019-04-27T04:11:44.584Z,3.40
2019-04-27T04:12:44.575Z,3.00
2019-04-27T04:13:44.568Z,2.80
2019-04-27T04:14:44.551Z,2.80
2019-04-27T04:15:44.543Z,3.00
2019-04-27T04:16:44.531Z,2.60
2019-04-27T04:17:44.519Z,2.80
2019-04-27T04:18:44.513Z,2.60
2019-04-27T04:19:54.376Z,2.80
2019-04-27T04:20:45.485Z,2.80
2019-04-27T04:21:44.475Z,2.80
2019-04-27T04:22:44.467Z,2.80
2019-04-27T04:23:44.450Z,2.70
2019-04-27T04:24:44.446Z,2.70
2019-04-27T04:25:44.431Z,3.00
2019-04-27T04:26:44.420Z,2.70
2019-04-27T04:27:44.412Z,3.20
2019-04-27T04:28:44.401Z,3.20
2019-04-27T04:29:44.386Z,2.90
2019-04-27T04:30:44.378Z,3.10
2019-04-27T04:31:44.366Z,3.10
2019-04-27T04:32:44.361Z,3.50
2019-04-27T04:33:44.341Z,3.30
2019-04-27T04:34:44.329Z,3.50
2019-04-27T04:35:44.318Z,3.20
2019-04-27T04:36:44.357Z,3.50
2019-04-27T04:37:44.296Z,3.60
2019-04-27T04:38:44.298Z,3.50
2019-04-27T04:39:44.278Z,3.90
2019-04-27T04:40:44.266Z,4.10
2019-04-27T04:41:44.252Z,4.20
2019-04-27T04:42:44.250Z,4.20
2019-04-27T04:43:44.232Z,4.30
2019-04-27T04:44:44.238Z,4.40
2019-04-27T04:45:44.216Z,4.30
2019-04-27T04:46:44.201Z,4.60
2019-04-27T04:47:44.191Z,4.50
2019-04-27T04:48:44.200Z,4.30
2019-04-27T04:49:44.176Z,4.50
2019-04-27T04:50:44.163Z,4.80
2019-04-27T04:51:44.146Z,4.70
2019-04-27T04:52:44.138Z,4.50
2019-04-27T04:53:44.123Z,4.20
2019-04-27T04:54:44.116Z,4.60
2019-04-27T04:55:44.105Z,4.60
2019-04-27T04:56:44.091Z,4.40
2019-04-27T04:57:44.080Z,4.60
2019-04-27T04:58:44.068Z,4.70
2019-04-27T04:59:44.062Z,4.60
2019-04-27T05:00:44.045Z,5.10
2019-04-27T05:01:44.042Z,4.80
2019-04-27T05:02:44.024Z,4.60
2019-04-27T05:03:44.011Z,4.70
2019-04-27T05:04:44.000Z,4.70
2019-04-27T05:05:44.006Z,5.50
2019-04-27T05:06:43.985Z,4.90
2019-04-27T05:07:43.977Z,4.60
2019-04-27T05:08:43.961Z,4.70
2019-04-27T05:09:43.949Z,4.50
2019-04-27T05:10:43.934Z,4.70
2019-04-27T05:11:43.931Z,4.90
2019-04-27T05:12:43.920Z,5.20
2019-04-27T05:13:43.921Z,4.80
2019-04-27T05:14:43.892Z,4.80
2019-04-27T05:15:43.880Z,5.50
2019-04-27T05:16:43.867Z,4.80
2019-04-27T05:17:43.871Z,4.90
2019-04-27T05:18:43.857Z,5.10
2019-04-27T05:19:43.836Z,5.30
2019-04-27T05:20:43.832Z,5.70
2019-04-27T05:21:43.816Z,5.90
2019-04-27T05:22:43.804Z,5.50
2019-04-27T05:23:43.791Z,5.40
2019-04-27T05:24:43.791Z,5.60
2019-04-27T05:25:43.769Z,5.60
2019-04-27T05:26:43.760Z,5.70
2019-04-27T05:27:43.747Z,5.90
2019-04-27T05:28:43.755Z,5.90
2019-04-27T05:29:43.727Z,5.70
2019-04-27T05:30:43.721Z,5.50
2019-04-27T05:31:43.705Z,6.20
2019-04-27T05:32:43.695Z,6.40
2019-04-27T05:33:43.683Z,6.30
2019-04-27T05:34:43.679Z,5.90
2019-04-27T05:35:43.661Z,6.90
2019-04-27T05:36:48.699Z,6.30
2019-04-27T05:37:44.638Z,6.50
2019-04-27T05:38:45.761Z,6.80
2019-04-27T05:39:43.619Z,6.70
2019-04-27T05:40:43.616Z,6.20
2019-04-27T05:41:43.607Z,7.40
2019-04-27T05:42:43.595Z,6.90
2019-04-27T05:43:43.575Z,6.60
2019-04-27T05:44:45.579Z,6.80
2019-04-27T05:45:43.553Z,7.20
2019-04-27T05:46:43.542Z,7.10
2019-04-27T05:47:47.811Z,6.30
2019-04-27T05:48:44.517Z,7.00
2019-04-27T05:49:44.627Z,7.20
2019-04-27T05:50:45.906Z,7.30
2019-04-27T05:51:43.502Z,7.00
2019-04-27T05:52:43.504Z,6.60
2019-04-27T05:53:43.466Z,6.70
2019-04-27T05:54:43.456Z,7.00
2019-04-27T05:55:43.443Z,7.10
2019-04-27T05:56:43.434Z,7.60
2019-04-27T05:57:43.424Z,7.10
2019-04-27T05:58:43.413Z,7.50
2019-04-27T05:59:43.412Z,7.30
2019-04-27T06:00:43.393Z,7.20
2019-04-27T06:01:43.382Z,6.70
2019-04-27T06:02:43.371Z,6.80
2019-04-27T06:03:43.362Z,7.10
2019-04-27T06:04:43.350Z,7.10
2019-04-27T06:05:43.343Z,7.40
2019-04-27T06:06:43.331Z,7.20
2019-04-27T06:07:43.317Z,7.40
2019-04-27T06:08:43.304Z,8.10
2019-04-27T06:09:43.304Z,7.60
2019-04-27T06:10:43.285Z,7.70
2019-04-27T06:11:43.277Z,7.60
2019-04-27T06:12:43.263Z,7.40
2019-04-27T06:13:43.254Z,8.20
2019-04-27T06:14:43.255Z,7.70
2019-04-27T06:15:43.245Z,8.00
2019-04-27T06:16:43.224Z,7.50
2019-04-27T06:17:43.226Z,8.30
2019-04-27T06:18:43.206Z,7.70
2019-04-27T06:19:43.933Z,7.70
2019-04-27T06:20:53.363Z,7.30
2019-04-27T06:21:44.171Z,7.80
2019-04-27T06:22:43.158Z,8.00
2019-04-27T06:23:43.156Z,7.00
2019-04-27T06:24:43.141Z,7.10
2019-04-27T06:25:43.136Z,6.50
2019-04-27T06:26:43.119Z,6.40
2019-04-27T06:27:43.112Z,6.70
2019-04-27T06:28:43.096Z,6.10
2019-04-27T06:29:43.156Z,5.70
2019-04-27T06:30:43.081Z,5.80
2019-04-27T06:31:43.064Z,6.00
2019-04-27T06:32:43.051Z,7.00
2019-04-27T06:33:43.056Z,6.60
2019-04-27T06:34:43.035Z,7.30
2019-04-27T06:35:43.030Z,7.00
2019-04-27T06:36:43.020Z,7.20
2019-04-27T06:37:43.019Z,7.40
2019-04-27T06:38:42.988Z,7.70
2019-04-27T06:39:42.989Z,7.30
2019-04-27T06:40:42.977Z,7.40
2019-04-27T06:41:42.966Z,7.30
2019-04-27T06:42:42.951Z,7.50
2019-04-27T06:43:43.014Z,7.40
2019-04-27T06:44:42.925Z,7.80
2019-04-27T06:45:42.914Z,7.60
2019-04-27T06:46:43.515Z,7.20
2019-04-27T06:47:42.913Z,7.40
2019-04-27T06:48:42.900Z,7.70
2019-04-27T06:49:42.871Z,7.60
2019-04-27T06:50:42.864Z,7.70
2019-04-27T06:51:42.850Z,7.60
2019-04-27T06:52:42.841Z,8.40
2019-04-27T06:53:42.842Z,7.30
2019-04-27T06:54:42.820Z,7.80
2019-04-27T06:55:42.809Z,8.00
2019-04-27T06:56:42.803Z,7.70
2019-04-27T06:57:42.790Z,8.10
2019-04-27T06:58:42.781Z,7.90
2019-04-27T06:59:42.768Z,7.30
2019-04-27T07:00:42.785Z,8.00
2019-04-27T07:01:42.913Z,8.20
2019-04-27T07:02:42.731Z,7.50
2019-04-27T07:03:42.728Z,7.90
2019-04-27T07:04:42.715Z,8.20
2019-04-27T07:05:42.706Z,8.70
2019-04-27T07:06:53.198Z,7.70
2019-04-27T07:07:43.680Z,8.00
2019-04-27T07:08:42.671Z,7.90
2019-04-27T07:09:42.683Z,7.70
2019-04-27T07:10:42.661Z,7.60
2019-04-27T07:11:42.649Z,8.40
2019-04-27T07:12:42.631Z,8.80
2019-04-27T07:13:42.618Z,7.30
2019-04-27T07:14:52.420Z,8.60
2019-04-27T07:15:43.604Z,8.50
2019-04-27T07:16:42.593Z,11.20
2019-04-27T07:17:42.609Z,10.50
2019-04-27T07:18:42.566Z,9.70
2019-04-27T07:19:42.558Z,10.40
2019-04-27T07:20:42.553Z,10.00
2019-04-27T07:21:42.535Z,10.20
2019-04-27T07:22:42.530Z,9.80
2019-04-27T07:23:42.517Z,9.80
2019-04-27T07:24:42.516Z,11.00
2019-04-27T07:25:42.490Z,10.30
2019-04-27T07:26:42.492Z,10.50
2019-04-27T07:27:42.478Z,10.90
2019-04-27T07:28:42.470Z,11.80
2019-04-27T07:29:44.583Z,11.00
2019-04-27T07:30:42.438Z,11.00
2019-04-27T07:31:42.427Z,10.90
2019-04-27T07:32:42.431Z,12.40
2019-04-27T07:33:42.417Z,12.10
2019-04-27T07:34:42.409Z,12.50
2019-04-27T07:35:42.387Z,13.20
2019-04-27T07:36:42.375Z,12.20
2019-04-27T07:37:42.364Z,12.30
2019-04-27T07:38:42.391Z,12.20
2019-04-27T07:39:42.354Z,11.30
2019-04-27T07:40:42.348Z,12.70
2019-04-27T07:41:42.464Z,12.60
2019-04-27T07:42:42.327Z,12.90
2019-04-27T07:43:42.301Z,13.30
2019-04-27T07:44:42.291Z,12.90
2019-04-27T07:45:42.281Z,12.50
2019-04-27T07:46:42.298Z,12.90
2019-04-27T07:47:42.259Z,13.50
2019-04-27T07:48:42.246Z,12.20
2019-04-27T07:49:42.242Z,12.70
2019-04-27T07:50:42.228Z,13.80
2019-04-27T07:51:42.231Z,12.00
2019-04-27T07:52:42.231Z,13.40
2019-04-27T07:53:42.194Z,12.60
2019-04-27T07:54:42.187Z,12.20
2019-04-27T07:55:42.182Z,12.90
2019-04-27T07:56:42.165Z,13.20
2019-04-27T07:57:42.160Z,12.30
2019-04-27T07:58:42.144Z,13.70
2019-04-27T07:59:42.253Z,13.00
2019-04-27T08:00:42.123Z,13.10
2019-04-27T08:01:42.110Z,13.00
2019-04-27T08:02:42.102Z,13.60
2019-04-27T08:03:42.102Z,13.50
2019-04-27T08:04:42.087Z,13.90
2019-04-27T08:05:42.065Z,12.30
2019-04-27T08:06:42.058Z,13.50
2019-04-27T08:07:42.046Z,13.70
2019-04-27T08:08:42.038Z,14.20
2019-04-27T08:09:42.055Z,14.10
2019-04-27T08:10:42.016Z,13.10
2019-04-27T08:11:42.007Z,13.70
2019-04-27T08:12:41.997Z,13.50
2019-04-27T08:13:41.982Z,14.50
2019-04-27T08:14:41.977Z,13.20
2019-04-27T08:15:41.970Z,14.40
2019-04-27T08:16:41.951Z,13.50
2019-04-27T08:17:42.895Z,14.40
2019-04-27T08:18:42.558Z,13.20
2019-04-27T08:19:41.951Z,13.30
2019-04-27T08:20:41.917Z,13.20
2019-04-27T08:21:44.445Z,13.90
2019-04-27T08:22:41.887Z,14.00
2019-04-27T08:23:42.025Z,13.40
2019-04-27T08:24:41.877Z,13.00
2019-04-27T08:25:41.863Z,12.90
2019-04-27T08:26:41.846Z,12.80
2019-04-27T08:27:41.838Z,14.60
2019-04-27T08:28:41.825Z,12.50
2019-04-27T08:29:41.813Z,14.00
2019-04-27T08:30:41.805Z,13.00
2019-04-27T08:31:41.806Z,13.40
2019-04-27T08:32:41.802Z,14.30
2019-04-27T08:33:41.776Z,12.60
2019-04-27T08:34:41.762Z,13.90
2019-04-27T08:35:41.822Z,12.80
2019-04-27T08:36:41.740Z,13.10
2019-04-27T08:37:41.733Z,13.00
2019-04-27T08:38:41.719Z,13.40
2019-04-27T08:39:41.715Z,13.10
2019-04-27T08:40:41.698Z,13.10
2019-04-27T08:41:41.693Z,12.20
2019-04-27T08:42:41.683Z,12.40
2019-04-27T08:43:41.681Z,12.60
2019-04-27T08:44:41.657Z,12.90
2019-04-27T08:45:41.648Z,12.50
2019-04-27T08:46:41.634Z,13.40
2019-04-27T08:47:41.854Z,11.40
2019-04-27T08:48:41.619Z,13.10
2019-04-27T08:49:41.620Z,13.10
2019-04-27T08:50:42.145Z,12.50
2019-04-27T08:51:41.700Z,13.80
2019-04-27T08:52:41.992Z,14.20
2019-04-27T08:53:41.558Z,13.00
2019-04-27T08:54:41.553Z,12.90
2019-04-27T08:55:41.536Z,17.20
2019-04-27T08:56:41.534Z,14.70
2019-04-27T08:57:41.515Z,16.00
2019-04-27T08:58:41.520Z,14.50
2019-04-27T08:59:41.497Z,13.00
2019-04-27T09:00:41.494Z,13.10
2019-04-27T09:01:41.477Z,12.10
2019-04-27T09:02:46.740Z,12.00
2019-04-27T09:03:42.491Z,14.20
2019-04-27T09:04:41.450Z,15.10
2019-04-27T09:05:41.440Z,15.40
2019-04-27T09:06:41.427Z,14.70
2019-04-27T09:07:41.409Z,14.50
2019-04-27T09:08:41.509Z,12.80
2019-04-27T09:09:41.392Z,11.80
2019-04-27T09:10:41.381Z,12.40
2019-04-27T09:11:41.378Z,12.10
2019-04-27T09:12:41.526Z,13.00
2019-04-27T09:13:41.423Z,12.00
2019-04-27T09:14:41.337Z,11.20
2019-04-27T09:15:41.327Z,13.90
2019-04-27T09:16:41.320Z,10.20
2019-04-27T09:17:41.378Z,11.90
2019-04-27T09:18:41.295Z,10.40
2019-04-27T09:19:41.288Z,10.00
2019-04-27T09:20:41.275Z,11.00
2019-04-27T09:21:41.265Z,11.70
2019-04-27T09:22:41.254Z,10.90
2019-04-27T09:23:41.247Z,12.10
2019-04-27T09:24:41.233Z,12.10
2019-04-27T09:25:41.220Z,12.50
2019-04-27T09:26:41.211Z,12.70
2019-04-27T09:27:41.215Z,12.50
2019-04-27T09:28:41.191Z,12.30
2019-04-27T09:29:41.192Z,12.90
2019-04-27T09:30:41.168Z,12.80
2019-04-27T09:31:41.162Z,12.50
2019-04-27T09:32:41.148Z,12.80
2019-04-27T09:33:41.132Z,12.60
2019-04-27T09:34:41.124Z,12.90
2019-04-27T09:35:41.112Z,12.20
2019-04-27T09:36:41.284Z,12.70
2019-04-27T09:37:41.093Z,12.30
2019-04-27T09:38:41.083Z,12.80
2019-04-27T09:39:41.072Z,13.50
2019-04-27T09:40:41.076Z,12.70
2019-04-27T09:41:41.048Z,12.20
2019-04-27T09:42:41.052Z,12.00
2019-04-27T09:43:41.029Z,12.50
2019-04-27T09:44:41.024Z,12.20
2019-04-27T09:45:41.011Z,12.10
2019-04-27T09:46:41.001Z,12.10
2019-04-27T09:47:40.982Z,12.80
2019-04-27T09:48:40.979Z,12.00
2019-04-27T09:49:40.967Z,12.60
2019-04-27T09:50:40.981Z,11.30
2019-04-27T09:51:40.954Z,11.60
2019-04-27T09:52:40.930Z,12.40
2019-04-27T09:53:40.917Z,11.00
2019-04-27T09:54:40.918Z,11.40
2019-04-27T09:55:40.902Z,11.60
2019-04-27T09:56:40.989Z,10.80
2019-04-27T09:57:40.907Z,10.50
2019-04-27T09:58:40.871Z,10.80
2019-04-27T09:59:40.868Z,11.60
2019-04-27T10:00:40.845Z,10.80
2019-04-27T10:01:40.840Z,11.40
2019-04-27T10:02:40.822Z,11.60
2019-04-27T10:03:40.817Z,11.00
2019-04-27T10:04:40.797Z,10.50
2019-04-27T10:05:40.793Z,18.50
2019-04-27T10:06:40.781Z,23.00
2019-04-27T10:07:40.780Z,29.80
2019-04-27T10:08:40.759Z,24.30
2019-04-27T10:09:40.740Z,22.80
2019-04-27T10:10:40.731Z,20.60
2019-04-27T10:11:40.727Z,22.40
2019-04-27T10:12:40.719Z,17.10
2019-04-27T10:13:40.705Z,16.50
2019-04-27T10:14:40.696Z,15.30
2019-04-27T10:15:40.676Z,13.70
2019-04-27T10:16:40.666Z,11.90
2019-04-27T10:17:40.654Z,12.20
2019-04-27T10:18:40.655Z,13.50
2019-04-27T10:19:40.698Z,14.00
2019-04-27T10:20:41.140Z,16.80
2019-04-27T10:21:40.624Z,13.80
2019-04-27T10:22:43.463Z,12.70
2019-04-27T10:23:40.592Z,12.90
2019-04-27T10:24:40.589Z,13.30
2019-04-27T10:25:40.637Z,12.40
2019-04-27T10:26:40.555Z,10.80
2019-04-27T10:27:40.545Z,12.00
2019-04-27T10:28:40.538Z,11.20
2019-04-27T10:29:40.531Z,10.40
2019-04-27T10:30:40.516Z,10.10
2019-04-27T10:31:40.506Z,9.90
2019-04-27T10:32:42.771Z,8.90
2019-04-27T10:33:40.480Z,9.50
2019-04-27T10:34:40.471Z,8.70
2019-04-27T10:35:40.462Z,9.80
2019-04-27T10:36:40.453Z,9.50
2019-04-27T10:37:41.443Z,10.60
2019-04-27T10:38:40.424Z,10.30
2019-04-27T10:39:40.416Z,9.70
2019-04-27T10:40:40.413Z,9.70
2019-04-27T10:41:40.395Z,9.70
2019-04-27T10:42:40.399Z,8.80
2019-04-27T10:43:40.432Z,10.20
2019-04-27T10:44:40.366Z,10.00
2019-04-27T10:45:40.355Z,9.10
2019-04-27T10:46:40.371Z,10.10
2019-04-27T10:47:40.335Z,10.10
2019-04-27T10:48:40.330Z,10.00
2019-04-27T10:49:40.306Z,9.90
2019-04-27T10:50:40.293Z,10.60
2019-04-27T10:51:40.283Z,9.50
2019-04-27T10:52:52.638Z,9.50
2019-04-27T10:53:41.261Z,9.10
2019-04-27T10:54:40.351Z,8.90
2019-04-27T10:55:40.283Z,9.80
2019-04-27T10:56:40.252Z,9.50
2019-04-27T10:57:40.228Z,10.80
2019-04-27T10:58:40.213Z,9.60
2019-04-27T10:59:40.215Z,9.50
2019-04-27T11:00:40.188Z,10.10
2019-04-27T11:01:40.174Z,9.30
2019-04-27T11:02:40.166Z,10.20
2019-04-27T11:03:40.170Z,9.70
2019-04-27T11:04:40.154Z,9.60
2019-04-27T11:05:40.159Z,10.10
2019-04-27T11:06:40.119Z,9.80
2019-04-27T11:07:40.107Z,9.10
2019-04-27T11:08:40.096Z,10.20
2019-04-27T11:09:40.108Z,10.00
2019-04-27T11:10:40.089Z,10.70
2019-04-27T11:11:40.061Z,10.50
2019-04-27T11:12:40.055Z,10.20
2019-04-27T11:13:40.043Z,10.70
2019-04-27T11:14:40.037Z,10.00
2019-04-27T11:15:40.025Z,9.40
2019-04-27T11:16:40.018Z,10.60
2019-04-27T11:17:39.996Z,10.00
2019-04-27T11:18:40.003Z,11.40
2019-04-27T11:19:39.992Z,10.30
2019-04-27T11:20:39.980Z,11.10
2019-04-27T11:21:39.959Z,12.70
2019-04-27T11:22:39.953Z,13.70
2019-04-27T11:23:39.937Z,13.60
2019-04-27T11:24:39.920Z,13.00
2019-04-27T11:25:39.914Z,14.40
2019-04-27T11:26:39.899Z,15.80
2019-04-27T11:27:39.888Z,14.90
2019-04-27T11:28:42.566Z,14.60
2019-04-27T11:29:39.871Z,14.00
2019-04-27T11:30:39.852Z,14.60
2019-04-27T11:31:39.851Z,13.90
2019-04-27T11:32:39.837Z,13.70
2019-04-27T11:33:39.827Z,13.70
2019-04-27T11:34:39.822Z,13.20
2019-04-27T11:35:39.798Z,13.70
2019-04-27T11:36:39.786Z,13.40
2019-04-27T11:37:39.777Z,12.20
2019-04-27T11:38:39.774Z,12.90
2019-04-27T11:39:39.779Z,11.00
2019-04-27T11:40:39.756Z,10.90
2019-04-27T11:41:39.735Z,11.00
2019-04-27T11:42:39.723Z,11.60
2019-04-27T11:43:39.711Z,11.40
2019-04-27T11:44:39.705Z,10.60
2019-04-27T11:45:39.691Z,10.10
2019-04-27T11:46:40.485Z,9.50
2019-04-27T11:47:39.668Z,9.80
2019-04-27T11:48:39.669Z,9.90
2019-04-27T11:49:39.649Z,10.40
2019-04-27T11:50:39.641Z,8.80
2019-04-27T11:51:39.623Z,9.60
2019-04-27T11:52:39.614Z,10.50
2019-04-27T11:53:39.603Z,10.70
2019-04-27T11:54:39.592Z,11.00
2019-04-27T11:55:39.590Z,10.80
2019-04-27T11:56:39.569Z,11.00
2019-04-27T11:57:39.567Z,10.50
2019-04-27T11:58:39.544Z,10.30
2019-04-27T11:59:39.540Z,10.00
2019-04-27T12:00:39.524Z,10.10
2019-04-27T12:01:39.528Z,10.30
2019-04-27T12:02:39.504Z,9.90
2019-04-27T12:03:39.503Z,11.10
2019-04-27T12:04:39.487Z,10.50
2019-04-27T12:05:39.482Z,10.80
2019-04-27T12:06:39.465Z,11.50
2019-04-27T12:07:39.625Z,10.40
2019-04-27T12:08:39.442Z,10.10
2019-04-27T12:09:39.442Z,10.50
2019-04-27T12:10:39.414Z,10.20
2019-04-27T12:11:39.405Z,10.30
2019-04-27T12:12:39.400Z,10.80
2019-04-27T12:13:39.391Z,10.20
2019-04-27T12:14:39.377Z,10.50
2019-04-27T12:15:39.367Z,9.70
2019-04-27T12:16:39.369Z,9.80
2019-04-27T12:17:39.346Z,10.00
2019-04-27T12:18:39.344Z,9.10
2019-04-27T12:19:39.316Z,9.30
2019-04-27T12:20:39.312Z,9.50
2019-04-27T12:21:39.299Z,9.80
2019-04-27T12:22:39.285Z,9.60
2019-04-27T12:23:41.220Z,7.90
2019-04-27T12:24:39.275Z,8.50
2019-04-27T12:25:39.251Z,8.40
2019-04-27T12:26:39.249Z,8.10
2019-04-27T12:27:39.229Z,8.30
2019-04-27T12:28:39.224Z,8.70
2019-04-27T12:29:39.212Z,7.40
2019-04-27T12:30:39.198Z,7.70
2019-04-27T12:31:39.190Z,8.10
2019-04-27T12:32:39.183Z,7.30
2019-04-27T12:33:39.178Z,6.80
2019-04-27T12:34:39.154Z,6.80
2019-04-27T12:35:39.147Z,7.20
2019-04-27T12:36:39.132Z,7.20
2019-04-27T12:37:39.122Z,7.50
2019-04-27T12:38:39.121Z,7.00
2019-04-27T12:39:39.099Z,7.20
2019-04-27T12:40:39.096Z,7.10
2019-04-27T12:41:39.079Z,6.60
2019-04-27T12:42:39.066Z,7.30
2019-04-27T12:43:39.055Z,7.30
2019-04-27T12:44:42.211Z,6.40
2019-04-27T12:45:42.000Z,5.90
2019-04-27T12:46:39.024Z,6.60
2019-04-27T12:47:39.012Z,6.10
2019-04-27T12:48:39.003Z,5.90
2019-04-27T12:49:38.991Z,5.70
2019-04-27T12:50:38.985Z,6.40
2019-04-27T12:51:38.977Z,5.90
2019-04-27T12:52:38.964Z,5.80
2019-04-27T12:53:49.870Z,5.40
2019-04-27T12:54:39.939Z,6.70
2019-04-27T12:55:38.946Z,5.90
2019-04-27T12:56:38.924Z,5.80
2019-04-27T12:57:38.903Z,6.00
2019-04-27T12:58:38.893Z,6.00
2019-04-27T12:59:38.897Z,6.20
2019-04-27T13:00:38.978Z,6.10
2019-04-27T13:01:38.865Z,6.10
2019-04-27T13:02:38.849Z,6.20
2019-04-27T13:03:38.851Z,6.10
2019-04-27T13:04:38.828Z,6.00
2019-04-27T13:05:38.816Z,6.40
2019-04-27T13:06:38.812Z,5.20
2019-04-27T13:07:38.804Z,5.90
2019-04-27T13:08:38.788Z,5.70
2019-04-27T13:09:38.780Z,5.90